Time;durP1;ratioP1;P1;durP2;ratioP2;P2;SDS_P1;SDS_P2;PMS_P1;PMS_P2;Temp;Humidity;BMP_temperature;BMP_pressure;BME280_temperature;BME280_humidity;BME280_pressure;Samples;Min_cycle;Max_cycle;Signal;HPM_P1;HPM_P2
2021/03/07 00:01:31;;;;;;;13.33;10.00;;;;;;;3.68;44.65;98980.00;8320140;28;20223;-83
2021/03/07 00:05:33;;;;;;;12.70;10.30;;;;;;;3.66;45.19;98968.91;8341278;28;20205;-83
2021/03/07 00:09:36;;;;;;;13.23;10.07;;;;;;;3.67;45.10;98968.03;8342515;28;20196;-83
2021/03/07 00:13:38;;;;;;;12.60;9.63;;;;;;;3.75;44.80;98965.44;8341471;28;20240;-83
2021/03/07 00:17:41;;;;;;;11.55;9.75;;;;;;;3.98;44.10;98971.41;8340519;28;20423;-83
2021/03/07 00:21:43;;;;;;;14.37;10.60;;;;;;;3.64;45.55;98963.75;8342695;28;20676;-83
2021/03/07 00:25:46;;;;;;;17.90;10.63;;;;;;;3.68;45.49;98957.78;8341784;28;20211;-83
2021/03/07 00:29:49;;;;;;;13.33;10.23;;;;;;;3.60;45.76;98961.19;8341301;28;20208;-84
2021/03/07 00:33:51;;;;;;;12.37;9.67;;;;;;;3.66;45.36;98956.94;8340467;28;20265;-83
2021/03/07 00:37:53;;;;;;;12.33;9.87;;;;;;;3.48;45.72;98957.81;8341570;28;20215;-83
2021/03/07 00:41:56;;;;;;;13.63;10.50;;;;;;;3.54;45.34;98951.78;8340368;28;20224;-83
2021/03/07 00:45:58;;;;;;;17.20;9.80;;;;;;;3.48;44.96;98952.69;8340216;28;20197;-83
2021/03/07 00:50:00;;;;;;;12.70;9.87;;;;;;;3.45;45.82;98946.69;8339863;28;20211;-83
2021/03/07 00:54:03;;;;;;;11.00;9.73;;;;;;;3.45;44.92;98949.25;8339736;28;20569;-83
2021/03/07 00:58:06;;;;;;;12.67;9.47;;;;;;;3.39;45.56;98936.44;8340619;28;20196;-83
2021/03/07 01:02:08;;;;;;;11.93;9.80;;;;;;;3.31;45.24;98929.63;8339682;28;20224;-83
2021/03/07 01:06:11;;;;;;;11.87;9.53;;;;;;;3.11;45.43;98911.69;8321569;28;20201;-83
2021/03/07 01:10:16;;;;;;;13.70;10.07;;;;;;;3.28;45.29;98914.25;8339423;28;20224;-83
2021/03/07 01:14:19;;;;;;;13.13;10.73;;;;;;;3.31;45.21;98911.72;8339065;28;20251;-83
2021/03/07 01:18:21;;;;;;;13.40;11.07;;;;;;;3.23;45.85;98910.84;8339985;28;20205;-83
2021/03/07 01:22:23;;;;;;;13.23;10.90;;;;;;;3.26;45.29;98905.72;8339305;28;20647;-83
2021/03/07 01:26:25;;;;;;;14.23;10.43;;;;;;;3.26;45.47;98889.53;8322518;28;20560;-82
2021/03/07 01:30:31;;;;;;;14.10;10.73;;;;;;;2.97;45.65;98869.00;8340086;28;20205;-82
2021/03/07 01:34:33;;;;;;;12.43;10.20;;;;;;;2.89;45.91;98861.34;8338441;28;20201;-82
2021/03/07 01:38:35;;;;;;;15.20;10.50;;;;;;;2.84;46.28;98869.03;8338190;28;20216;-82
2021/03/07 01:42:37;;;;;;;13.40;9.97;;;;;;;2.99;46.35;98852.84;8336663;28;20235;-83
2021/03/07 01:46:40;;;;;;;12.57;10.40;;;;;;;3.09;46.30;98844.28;8337796;28;20649;-80
2021/03/07 01:50:45;;;;;;;12.40;9.73;;;;;;;3.11;45.81;98834.06;8345724;28;20211;-80
2021/03/07 01:54:47;;;;;;;15.33;11.20;;;;;;;3.01;46.26;98820.41;8338341;28;20765;-80
2021/03/07 01:58:49;;;;;;;17.77;13.90;;;;;;;3.12;46.07;98813.59;8337807;28;20434;-82
2021/03/07 02:02:53;;;;;;;16.97;13.10;;;;;;;3.01;46.53;98814.41;8338166;28;20236;-82
2021/03/07 02:06:55;;;;;;;16.07;13.03;;;;;;;3.14;46.11;98803.31;8338243;28;20204;-82
2021/03/07 02:10:59;;;;;;;18.57;12.23;;;;;;;2.97;46.05;98788.00;8337422;28;20248;-82
2021/03/07 02:15:05;;;;;;;16.70;12.30;;;;;;;2.97;46.59;98784.56;8346181;28;20199;-83
2021/03/07 02:19:09;;;;;;;14.77;11.17;;;;;;;2.89;46.12;98775.22;8372804;28;20654;-83
2021/03/07 02:23:14;;;;;;;14.97;11.27;;;;;;;2.81;46.99;98773.50;8372571;28;20313;-84
2021/03/07 02:27:18;;;;;;;13.27;11.27;;;;;;;2.86;46.62;98761.56;8373892;28;20211;-84
2021/03/07 02:31:23;;;;;;;15.37;11.17;;;;;;;2.90;46.30;98764.13;8373080;28;20249;-83
2021/03/07 02:35:26;;;;;;;14.87;11.20;;;;;;;2.87;46.78;98755.59;8373932;28;20208;-84
2021/03/07 02:39:31;;;;;;;14.43;10.93;;;;;;;2.84;46.74;98747.94;8377975;28;20203;-84
2021/03/07 02:43:38;;;;;;;14.77;11.90;;;;;;;2.85;46.70;98742.78;8388050;28;20230;-81
2021/03/07 02:47:45;;;;;;;12.63;10.63;;;;;;;2.73;46.47;98740.25;8392300;28;20200;-81
2021/03/07 02:51:49;;;;;;;13.77;11.30;;;;;;;2.77;46.68;98741.09;8398904;28;20199;-81
2021/03/07 02:55:53;;;;;;;14.30;10.97;;;;;;;2.64;47.07;98741.09;8392042;28;20207;-81
2021/03/07 02:59:58;;;;;;;14.60;10.77;;;;;;;2.65;46.83;98735.16;8378970;28;20188;-81
2021/03/07 03:04:01;;;;;;;15.43;11.53;;;;;;;2.73;46.54;98730.03;8348527;28;20231;-81
2021/03/07 03:08:03;;;;;;;13.40;10.80;;;;;;;2.56;46.87;98731.75;8345640;28;20550;-81
2021/03/07 03:12:07;;;;;;;16.63;11.20;;;;;;;2.59;46.39;98729.16;8345304;28;20240;-81
2021/03/07 03:16:11;;;;;;;15.13;10.53;;;;;;;2.58;46.66;98725.75;8345199;28;20204;-81
2021/03/07 03:20:16;;;;;;;13.47;10.00;;;;;;;2.52;47.04;98726.63;8346130;28;20288;-81
2021/03/07 03:24:18;;;;;;;14.03;10.90;;;;;;;2.45;46.31;98726.59;8346437;28;20231;-81
2021/03/07 03:28:21;;;;;;;15.13;10.73;;;;;;;2.33;46.54;98719.78;8355265;28;20215;-82
2021/03/07 03:32:24;;;;;;;15.13;10.50;;;;;;;2.29;46.71;98725.75;8344295;28;20205;-82
2021/03/07 03:36:26;;;;;;;14.20;10.60;;;;;;;2.36;46.15;98717.22;8343260;28;20262;-82
2021/03/07 03:40:29;;;;;;;13.60;10.27;;;;;;;2.17;47.02;98724.03;8344693;28;20200;-82
2021/03/07 03:44:34;;;;;;;12.63;9.43;;;;;;;2.24;47.08;98727.44;8326145;28;20224;-81
2021/03/07 03:48:40;;;;;;;12.53;9.40;;;;;;;2.11;47.08;98730.00;8344423;28;20208;-81
2021/03/07 03:52:43;;;;;;;11.13;9.27;;;;;;;2.17;47.01;98729.16;8343457;28;20199;-82
2021/03/07 03:56:47;;;;;;;12.93;9.47;;;;;;;2.04;46.89;98722.31;8344416;28;20211;-82
2021/03/07 04:00:50;;;;;;;11.73;9.13;;;;;;;2.08;47.18;98719.75;8346534;28;20275;-82
2021/03/07 04:04:56;;;;;;;11.30;9.67;;;;;;;2.06;46.85;98726.56;8329802;28;20232;-82
2021/03/07 04:08:58;;;;;;;12.50;9.13;;;;;;;2.02;47.27;98713.78;8353652;28;20187;-82
2021/03/07 04:13:01;;;;;;;12.30;9.23;;;;;;;2.07;47.10;98701.88;8348566;28;20236;-81
2021/03/07 04:17:03;;;;;;;11.93;9.63;;;;;;;2.02;47.29;98701.00;8326729;28;20205;-81
2021/03/07 04:21:07;;;;;;;11.97;9.33;;;;;;;1.93;47.82;98714.63;8342844;28;20579;-81
2021/03/07 04:25:10;;;;;;;10.07;8.97;;;;;;;1.99;47.68;98709.53;8342640;28;20224;-81
2021/03/07 04:29:12;;;;;;;12.43;9.00;;;;;;;2.01;47.88;98714.63;8343320;28;20196;-81
2021/03/07 04:33:15;;;;;;;11.37;9.07;;;;;;;1.89;47.80;98716.31;8343326;28;20212;-82
2021/03/07 04:37:18;;;;;;;11.73;9.13;;;;;;;1.89;47.82;98718.88;8343592;28;20642;-82
2021/03/07 04:41:21;;;;;;;13.20;9.20;;;;;;;1.93;47.52;98717.19;8343962;28;20211;-81
2021/03/07 04:45:23;;;;;;;10.57;9.30;;;;;;;1.94;47.44;98718.88;8324759;28;20201;-82
2021/03/07 04:49:25;;;;;;;12.10;9.10;;;;;;;1.86;47.34;98718.00;8343505;28;20209;-82
2021/03/07 04:53:28;;;;;;;11.13;9.23;;;;;;;1.68;47.46;98712.00;8343312;28;20205;-82
2021/03/07 04:57:31;;;;;;;12.80;9.53;;;;;;;1.75;47.24;98708.63;8326269;28;20319;-81
2021/03/07 05:01:35;;;;;;;14.23;9.60;;;;;;;1.76;47.05;98699.25;8343166;28;20203;-81
2021/03/07 05:05:38;;;;;;;13.57;10.53;;;;;;;1.77;47.47;98708.59;8353904;28;20228;-80
2021/03/07 05:09:41;;;;;;;12.10;9.47;;;;;;;1.79;47.89;98700.94;8363514;28;20207;-80
2021/03/07 05:13:43;;;;;;;12.63;11.20;;;;;;;1.57;48.17;98695.78;8363506;28;20248;-81
2021/03/07 05:17:45;;;;;;;17.07;10.17;;;;;;;1.61;48.36;98694.94;8363464;28;20210;-81
2021/03/07 05:21:47;;;;;;;13.87;9.30;;;;;;;1.70;48.75;98700.09;8364418;28;20235;-81
2021/03/07 05:25:51;;;;;;;15.40;10.83;;;;;;;1.68;48.30;98694.13;8346234;28;20197;-82
2021/03/07 05:29:53;;;;;;;14.83;10.27;;;;;;;1.68;48.62;98688.16;8324941;28;20273;-82
2021/03/07 05:33:55;;;;;;;12.03;9.77;;;;;;;1.62;48.49;98688.13;8341959;28;20259;-82
2021/03/07 05:37:57;;;;;;;12.17;9.23;;;;;;;1.81;48.13;98678.81;8341870;28;20250;-82
2021/03/07 05:42:01;;;;;;;14.40;9.93;;;;;;;1.75;48.11;98685.63;8341608;28;20217;-82
2021/03/07 05:46:04;;;;;;;11.07;9.77;;;;;;;1.74;47.70;98683.91;8340582;28;20200;-82
2021/03/07 05:50:07;;;;;;;13.13;10.23;;;;;;;1.66;47.02;98679.66;8340815;28;20206;-82
2021/03/07 05:54:11;;;;;;;12.57;10.20;;;;;;;1.68;47.16;98685.63;8340172;28;20207;-82
2021/03/07 05:58:14;;;;;;;12.57;9.83;;;;;;;1.52;47.72;98682.16;8341172;28;20209;-82
2021/03/07 06:02:17;;;;;;;11.80;9.17;;;;;;;1.77;47.30;98680.50;8340582;28;20236;-81
2021/03/07 06:06:19;;;;;;;13.13;9.97;;;;;;;1.87;46.88;98679.69;8341680;28;20733;-82
2021/03/07 06:10:24;;;;;;;13.60;10.17;;;;;;;2.30;46.82;98677.19;8340057;28;20223;-82
2021/03/07 06:14:29;;;;;;;13.27;10.53;;;;;;;3.10;44.88;98669.41;8341406;28;20544;-82
2021/03/07 06:18:40;;;;;;;12.97;9.50;;;;;;;3.86;43.71;98679.28;8341883;28;20200;-82
2021/03/07 06:22:53;;;;;;;12.03;9.60;;;;;;;4.22;42.85;98683.31;8341118;28;20229;-81
2021/03/07 06:27:04;;;;;;;14.50;11.17;;;;;;;3.94;43.12;98687.81;8341720;28;20195;-81
2021/03/07 06:31:28;;;;;;;18.20;12.17;;;;;;;4.57;41.68;98681.34;8342730;28;20215;-82
2021/03/07 06:35:32;;;;;;;13.57;11.07;;;;;;;5.07;40.52;98691.13;8365255;28;20191;-82
2021/03/07 06:39:34;;;;;;;15.10;12.30;;;;;;;5.13;40.44;98684.22;8342999;28;20203;-82
2021/03/07 06:43:36;;;;;;;25.47;20.80;;;;;;;4.94;40.79;98670.75;8321009;28;20224;-82
2021/03/07 06:47:54;;;;;;;20.20;14.77;;;;;;;5.23;39.97;98676.38;8337497;28;20287;-82
2021/03/07 06:52:12;;;;;;;11.57;9.57;;;;;;;5.21;39.11;98677.28;8337914;28;20200;-82
2021/03/07 06:56:14;;;;;;;11.43;9.13;;;;;;;5.42;39.64;98676.19;8338467;28;20637;-83
2021/03/07 07:00:17;;;;;;;10.77;9.27;;;;;;;5.64;39.71;98651.06;8339243;28;20203;-83
2021/03/07 07:04:22;;;;;;;13.80;9.40;;;;;;;5.97;39.11;98667.75;8338650;28;20745;-83
2021/03/07 07:08:45;;;;;;;8.33;7.43;;;;;;;5.65;37.44;98676.75;8339410;28;20211;-82
2021/03/07 07:12:47;;;;;;;33.07;25.10;;;;;;;6.22;37.45;98669.97;8336631;28;20240;-82
2021/03/07 07:16:49;;;;;;;9.33;7.97;;;;;;;5.75;37.50;98676.59;8337010;28;20204;-82
2021/03/07 07:20:53;;;;;;;9.17;8.23;;;;;;;6.12;36.52;98678.69;8337949;28;20274;-83
2021/03/07 07:24:56;;;;;;;8.93;7.77;;;;;;;6.64;36.66;98690.72;8338353;28;20551;-83
2021/03/07 07:28:58;;;;;;;12.87;9.33;;;;;;;6.95;36.32;98675.59;8319195;28;20204;-83
2021/03/07 07:33:00;;;;;;;9.97;7.77;;;;;;;6.78;35.88;98675.91;8337017;28;20215;-82
2021/03/07 07:37:07;;;;;;;9.77;7.80;;;;;;;7.08;36.13;98671.03;8336975;28;20200;-83
2021/03/07 07:41:33;;;;;;;9.63;7.77;;;;;;;7.35;35.99;98676.53;8339699;28;20208;-82
2021/03/07 07:45:36;;;;;;;12.27;7.97;;;;;;;7.16;36.85;98681.19;8344078;28;20664;-82
2021/03/07 07:49:42;;;;;;;10.57;7.00;;;;;;;7.71;35.87;98668.94;8343433;28;20215;-82
2021/03/07 07:53:45;;;;;;;8.23;7.27;;;;;;;7.77;35.42;98664.50;8344835;28;20204;-83
2021/03/07 07:57:51;;;;;;;11.27;7.90;;;;;;;8.37;34.91;98673.44;8345644;28;20203;-83
2021/03/07 08:01:56;;;;;;;9.17;8.07;;;;;;;8.77;33.21;98674.22;8345828;28;20200;-84
2021/03/07 08:05:59;;;;;;;10.57;7.33;;;;;;;9.00;33.34;98671.91;8346087;28;20204;-83
2021/03/07 08:10:03;;;;;;;9.47;7.70;;;;;;;9.26;33.57;98669.47;8345385;28;20239;-83
2021/03/07 08:14:05;;;;;;;8.80;7.27;;;;;;;9.38;33.07;98662.22;8346024;28;20232;-82
2021/03/07 08:18:08;;;;;;;12.53;7.80;;;;;;;9.77;32.13;98656.78;8345384;28;20564;-82
2021/03/07 08:22:10;;;;;;;10.50;7.63;;;;;;;9.87;30.45;98672.03;8344052;28;20351;-83
2021/03/07 08:26:14;;;;;;;9.63;7.00;;;;;;;9.91;29.60;98658.94;8326092;28;20197;-84
2021/03/07 08:30:17;;;;;;;9.30;7.13;;;;;;;10.48;29.95;98656.34;8344881;28;20204;-84
2021/03/07 08:34:24;;;;;;;8.43;7.10;;;;;;;10.97;29.11;98649.50;8343177;28;20223;-84
2021/03/07 08:38:26;;;;;;;8.77;6.77;;;;;;;11.38;28.29;98652.34;8342082;28;20208;-84
2021/03/07 08:42:29;;;;;;;8.17;6.53;;;;;;;11.37;28.25;98655.84;8343678;28;20225;-83
2021/03/07 08:46:46;;;;;;;7.03;6.20;;;;;;;11.80;27.78;98637.81;8341327;28;20208;-83
2021/03/07 08:50:48;;;;;;;8.10;6.20;;;;;;;11.96;28.42;98643.31;8343468;28;20934;-83
2021/03/07 08:54:52;;;;;;;8.70;6.87;;;;;;;12.09;27.71;98634.97;8346730;28;20212;-83
2021/03/07 08:58:56;;;;;;;7.07;6.03;;;;;;;12.23;26.55;98631.81;8375816;28;20204;-83
2021/03/07 09:02:58;;;;;;;6.10;5.50;;;;;;;12.54;26.34;98625.34;8316486;28;20714;-84
2021/03/07 09:07:00;;;;;;;8.57;5.77;;;;;;;12.82;26.87;98621.59;8343479;28;20296;-83
2021/03/07 09:11:03;;;;;;;6.70;5.27;;;;;;;12.75;25.37;98615.78;8322765;28;20244;-83
2021/03/07 09:15:09;;;;;;;8.33;5.53;;;;;;;13.04;26.13;98614.53;8323115;28;20568;-83
2021/03/07 09:19:31;;;;;;;6.70;5.87;;;;;;;13.46;25.63;98610.09;8340492;28;20208;-83
2021/03/07 09:23:38;;;;;;;8.07;5.50;;;;;;;13.52;25.32;98602.03;8340799;28;20208;-83
2021/03/07 09:27:41;;;;;;;7.00;5.80;;;;;;;13.84;24.17;98595.31;8338743;28;20196;-83
2021/03/07 09:31:44;;;;;;;8.23;5.10;;;;;;;14.06;23.83;98591.66;8340528;28;20594;-84
2021/03/07 09:35:47;;;;;;;6.53;4.83;;;;;;;13.94;24.25;98587.91;8342390;28;20640;-84
2021/03/07 09:39:50;;;;;;;6.13;4.37;;;;;;;14.33;22.85;98580.81;8342459;28;20680;-84
2021/03/07 09:43:52;;;;;;;8.30;4.40;;;;;;;14.65;22.04;98577.44;8342608;28;20224;-83
2021/03/07 09:47:55;;;;;;;4.80;4.30;;;;;;;14.35;20.56;98581.56;8342216;28;20200;-83
2021/03/07 09:51:58;;;;;;;4.80;3.83;;;;;;;14.34;21.04;98577.31;8323071;28;20216;-83
2021/03/07 09:56:00;;;;;;;4.43;3.60;;;;;;;14.64;20.77;98572.31;8339399;28;20200;-83
2021/03/07 10:00:03;;;;;;;3.90;3.50;;;;;;;14.93;21.84;98570.81;8341564;28;20211;-84
2021/03/07 10:04:24;;;;;;;4.23;3.80;;;;;;;13.11;22.21;98552.69;8341215;28;20224;-83
2021/03/07 10:08:26;;;;;;;4.27;3.60;;;;;;;13.57;23.06;98541.94;8344963;28;20204;-83
2021/03/07 10:12:56;;;;;;;5.20;3.13;;;;;;;14.79;21.47;98552.44;8344393;28;20240;-83
2021/03/07 10:16:59;;;;;;;4.70;3.20;;;;;;;14.63;21.19;98552.38;8318468;28;20212;-83
2021/03/07 10:21:04;;;;;;;4.60;3.40;;;;;;;15.06;21.00;98531.88;8342320;28;20196;-83
2021/03/07 10:25:08;;;;;;;4.03;3.30;;;;;;;15.33;20.85;98539.97;8341830;28;20267;-83
2021/03/07 10:29:37;;;;;;;4.00;3.60;;;;;;;15.43;20.90;98524.66;8340751;28;20197;-83
2021/03/07 10:33:40;;;;;;;4.20;3.40;;;;;;;15.52;20.48;98510.25;8340931;28;20196;-83
2021/03/07 10:37:44;;;;;;;3.57;3.20;;;;;;;15.70;20.39;98514.44;8343738;28;20204;-83
2021/03/07 10:41:47;;;;;;;3.53;3.13;;;;;;;15.58;20.51;98497.69;8341960;28;20266;-83
2021/03/07 10:45:49;;;;;;;5.30;3.53;;;;;;;14.47;21.90;98503.63;8339300;28;20231;-82
2021/03/07 10:49:51;;;;;;;5.27;3.80;;;;;;;14.81;19.26;98495.81;8331660;28;20196;-82
2021/03/07 10:53:55;;;;;;;4.67;4.13;;;;;;;15.13;18.72;98498.47;8337541;28;20208;-82
2021/03/07 10:57:57;;;;;;;5.37;3.50;;;;;;;14.77;19.99;98494.31;8360816;28;20204;-82
2021/03/07 11:02:00;;;;;;;5.40;3.67;;;;;;;13.48;20.62;98491.22;8359392;28;20207;-82
2021/03/07 11:06:03;;;;;;;3.87;3.47;;;;;;;14.43;21.38;98485.59;8359197;28;20337;-83
2021/03/07 11:10:09;;;;;;;5.77;3.47;;;;;;;14.90;20.17;98481.47;8370613;28;20220;-82
2021/03/07 11:14:11;;;;;;;8.13;3.80;;;;;;;14.43;29.89;98478.66;8348817;28;20260;-84
2021/03/07 11:18:13;;;;;;;5.83;3.70;;;;;;;13.27;20.77;98456.63;8352910;28;20656;-84
2021/03/07 11:22:18;;;;;;;3.97;3.53;;;;;;;14.70;22.61;98453.84;8353471;28;20200;-84
2021/03/07 11:26:21;;;;;;;4.93;3.80;;;;;;;15.17;22.92;98440.84;8345115;28;20648;-83
2021/03/07 11:30:23;;;;;;;4.73;3.50;;;;;;;13.87;20.39;98441.53;8343336;28;20212;-81
2021/03/07 11:34:25;;;;;;;7.67;3.57;;;;;;;13.55;21.91;98427.53;8343888;28;20204;-82
2021/03/07 11:38:27;;;;;;;5.17;3.63;;;;;;;13.32;22.25;98426.03;8344294;28;20212;-80
2021/03/07 11:42:30;;;;;;;27.33;18.07;;;;;;;14.11;22.43;98416.94;8341620;28;20208;-80
2021/03/07 11:46:31;;;;;;;177.23;100.37;;;;;;;14.44;22.64;98406.53;8341144;28;20197;-79
2021/03/07 11:50:33;;;;;;;132.07;72.17;;;;;;;13.89;22.17;98408.47;8343397;28;20197;-79
2021/03/07 11:54:35;;;;;;;22.43;14.47;;;;;;;14.47;21.40;98393.34;8342489;28;20200;-79
2021/03/07 11:58:38;;;;;;;75.57;42.43;;;;;;;13.36;21.14;98390.31;8342258;28;20201;-79
2021/03/07 12:02:40;;;;;;;18.87;10.07;;;;;;;13.41;21.27;98391.78;8341522;28;20231;-80
2021/03/07 12:06:42;;;;;;;171.23;70.23;;;;;;;13.54;20.47;98376.41;8341598;28;20232;-79
2021/03/07 12:10:44;;;;;;;147.83;52.53;;;;;;;13.92;21.28;98375.38;8341712;28;20220;-81
2021/03/07 12:14:46;;;;;;;102.40;38.57;;;;;;;14.31;20.74;98372.47;8342960;28;20204;-79
2021/03/07 12:18:49;;;;;;;1999.90;846.27;;;;;;;14.69;26.71;98359.16;8343001;28;20640;-79
2021/03/07 12:22:51;;;;;;;115.13;44.73;;;;;;;14.25;22.03;98349.34;8343831;28;20224;-81
2021/03/07 12:26:53;;;;;;;625.60;249.97;;;;;;;14.52;21.60;98343.56;8342144;28;20200;-80
2021/03/07 12:30:55;;;;;;;101.63;36.07;;;;;;;14.39;21.30;98338.19;8341680;28;20270;-79
2021/03/07 12:34:57;;;;;;;72.90;27.63;;;;;;;13.38;20.81;98341.66;8340979;28;20200;-79
2021/03/07 12:39:00;;;;;;;122.47;45.67;;;;;;;13.63;21.43;98336.06;8342490;28;20193;-80
2021/03/07 12:43:04;;;;;;;36.57;15.83;;;;;;;14.28;21.37;98329.19;8342159;28;20220;-79
2021/03/07 12:47:07;;;;;;;25.83;12.20;;;;;;;14.39;21.24;98320.81;8341667;28;20602;-80
2021/03/07 12:51:09;;;;;;;83.23;31.73;;;;;;;14.43;22.58;98317.09;8341139;28;20235;-80
2021/03/07 12:55:11;;;;;;;17.33;8.57;;;;;;;14.35;20.51;98305.41;8342120;28;20201;-83
2021/03/07 12:59:13;;;;;;;6.87;4.57;;;;;;;14.25;20.05;98305.91;8342416;28;20675;-82
2021/03/07 13:03:16;;;;;;;5.83;4.27;;;;;;;13.89;21.09;98293.06;8341770;28;20224;-82
2021/03/07 13:07:18;;;;;;;4.03;3.40;;;;;;;14.16;20.02;98279.50;8339396;28;20231;-80
2021/03/07 13:11:20;;;;;;;4.37;3.50;;;;;;;14.30;21.18;98273.53;8340340;28;20267;-82
2021/03/07 13:15:21;;;;;;;5.47;3.57;;;;;;;14.51;20.98;98256.75;8339596;28;20207;-81
2021/03/07 13:19:25;;;;;;;5.17;3.90;;;;;;;14.36;20.77;98263.66;8340095;28;20224;-81
2021/03/07 13:23:26;;;;;;;3.63;3.33;;;;;;;14.54;20.46;98256.56;8341662;28;20589;-82
2021/03/07 13:27:29;;;;;;;3.90;3.50;;;;;;;14.75;21.08;98256.31;8345013;28;20196;-84
2021/03/07 13:31:32;;;;;;;23.23;6.57;;;;;;;14.75;22.26;98238.91;8346438;28;20236;-83
2021/03/07 13:35:37;;;;;;;17.30;6.40;;;;;;;14.99;20.77;98241.03;8332447;28;20264;-84
2021/03/07 13:39:40;;;;;;;3.67;3.37;;;;;;;14.78;20.77;98236.13;8334049;28;20177;-86
2021/03/07 13:43:42;;;;;;;6.00;3.67;;;;;;;15.03;20.94;98229.50;8349258;28;20220;-87
2021/03/07 13:47:49;;;;;;;3.90;3.50;;;;;;;14.71;20.31;98216.53;8325418;28;20637;-87
2021/03/07 13:51:53;;;;;;;4.87;3.80;;;;;;;14.92;20.77;98219.69;8367965;28;20204;-84
2021/03/07 13:55:55;;;;;;;7.20;3.70;;;;;;;15.07;20.76;98211.91;8360949;28;20245;-85
2021/03/07 13:59:57;;;;;;;4.00;3.60;;;;;;;15.05;20.81;98204.16;8331634;28;20231;-86
2021/03/07 14:04:00;;;;;;;5.03;3.80;;;;;;;15.13;20.04;98196.72;8370788;28;20220;-87
2021/03/07 14:08:03;;;;;;;5.07;4.47;;;;;;;14.96;19.91;98194.28;8348215;28;20617;-87
2021/03/07 14:12:09;;;;;;;5.40;4.30;;;;;;;15.16;20.04;98196.56;8319882;28;20299;-86
2021/03/07 14:16:11;;;;;;;6.27;4.00;;;;;;;14.91;20.25;98176.31;8309746;28;20201;-86
2021/03/07 14:20:15;;;;;;;4.97;3.73;;;;;;;14.58;20.32;98184.28;8306004;28;20213;-87
2021/03/07 14:24:18;;;;;;;5.20;3.93;;;;;;;15.00;20.49;98180.13;8366397;28;20231;-86
2021/03/07 14:28:21;;;;;;;6.03;3.97;;;;;;;15.05;20.00;98180.69;8343169;28;20208;-86
2021/03/07 14:32:26;;;;;;;5.00;3.87;;;;;;;15.01;20.20;98176.59;8348409;28;20200;-85
2021/03/07 14:36:28;;;;;;;7.17;4.97;;;;;;;14.32;18.64;98163.13;8346388;28;20212;-85
2021/03/07 14:40:32;;;;;;;4.10;3.70;;;;;;;14.56;19.08;98160.88;8347050;28;20208;-85
2021/03/07 14:44:34;;;;;;;4.37;3.47;;;;;;;14.70;18.97;98144.50;8346808;28;20228;-85
2021/03/07 14:48:36;;;;;;;3.50;3.20;;;;;;;14.68;17.92;98132.47;8292976;28;20209;-84
2021/03/07 14:52:40;;;;;;;3.20;2.90;;;;;;;14.40;17.73;98140.09;8317258;28;20220;-85
2021/03/07 14:56:44;;;;;;;5.10;3.37;;;;;;;14.47;17.70;98138.00;8346406;28;20211;-85
2021/03/07 15:00:46;;;;;;;3.97;3.00;;;;;;;14.09;17.67;98125.38;8351212;28;20188;-85
2021/03/07 15:04:48;;;;;;;4.63;3.50;;;;;;;14.51;17.27;98129.06;8346644;28;20235;-86
2021/03/07 15:08:50;;;;;;;3.50;3.20;;;;;;;14.39;17.57;98119.31;8332536;28;20216;-85
2021/03/07 15:12:57;;;;;;;4.50;3.23;;;;;;;13.75;17.70;98126.41;8351172;28;20235;-85
2021/03/07 15:16:59;;;;;;;3.57;3.07;;;;;;;14.08;18.13;98119.31;8352583;28;20200;-84
2021/03/07 15:21:02;;;;;;;6.77;3.60;;;;;;;14.13;18.86;98118.22;8347261;28;20197;-85
2021/03/07 15:25:05;;;;;;;5.13;3.30;;;;;;;13.52;19.53;98110.28;8344825;28;20235;-84
2021/03/07 15:29:09;;;;;;;3.73;3.43;;;;;;;13.83;20.57;98103.38;8344644;28;20211;-86
2021/03/07 15:33:11;;;;;;;5.10;3.40;;;;;;;13.74;19.38;98103.88;8347062;28;20204;-84
2021/03/07 15:37:14;;;;;;;4.17;3.60;;;;;;;13.73;19.48;98097.00;8345309;28;20220;-85
2021/03/07 15:41:16;;;;;;;4.80;3.90;;;;;;;13.71;19.64;98099.69;8328593;28;20219;-84
2021/03/07 15:45:20;;;;;;;4.43;3.13;;;;;;;13.48;20.52;98090.56;8343063;28;20239;-84
2021/03/07 15:49:21;;;;;;;7.10;5.47;;;;;;;13.33;19.78;98089.59;8355491;28;20228;-83
2021/03/07 15:53:23;;;;;;;5.00;3.33;;;;;;;12.98;20.50;98079.25;8337621;28;20232;-84
2021/03/07 15:57:25;;;;;;;5.43;4.80;;;;;;;12.79;21.41;98083.75;8349759;28;20636;-83
2021/03/07 16:01:28;;;;;;;3.47;3.17;;;;;;;12.50;21.06;98081.69;8320633;28;20359;-83
2021/03/07 16:05:30;;;;;;;3.87;3.47;;;;;;;12.41;21.17;98074.38;8312468;28;20594;-83
2021/03/07 16:09:32;;;;;;;5.70;4.90;;;;;;;12.33;21.29;98081.72;8328892;28;20205;-83
2021/03/07 16:13:34;;;;;;;19.37;5.03;;;;;;;12.23;22.19;98073.53;8350691;28;20239;-83
2021/03/07 16:17:38;;;;;;;3.83;3.43;;;;;;;12.05;22.06;98070.09;8375435;28;20286;-83
2021/03/07 16:21:40;;;;;;;3.53;3.23;;;;;;;11.89;22.21;98075.16;8342975;28;20232;-83
2021/03/07 16:25:43;;;;;;;5.67;4.77;;;;;;;11.64;22.06;98066.84;8343541;28;20680;-83
2021/03/07 16:29:45;;;;;;;3.97;3.40;;;;;;;11.51;22.03;98071.75;8344015;28;20197;-83
2021/03/07 16:33:48;;;;;;;3.60;3.30;;;;;;;11.43;22.56;98063.50;8344102;28;20204;-83
2021/03/07 16:37:51;;;;;;;3.77;3.27;;;;;;;11.38;23.14;98066.28;8342510;28;20215;-83
2021/03/07 16:41:53;;;;;;;6.20;3.30;;;;;;;11.24;23.40;98072.13;8338962;28;20208;-83
2021/03/07 16:45:55;;;;;;;3.67;3.37;;;;;;;11.15;24.02;98062.16;8342519;28;20228;-82
2021/03/07 16:49:59;;;;;;;8.43;3.97;;;;;;;10.95;24.19;98061.31;8341934;28;20205;-83
2021/03/07 16:54:03;;;;;;;6.47;3.73;;;;;;;10.88;25.32;98066.81;8342242;28;20196;-83
2021/03/07 16:58:06;;;;;;;8.03;3.60;;;;;;;10.75;26.22;98067.34;8341131;28;20188;-83
2021/03/07 17:02:08;;;;;;;7.73;4.10;;;;;;;10.60;26.33;98062.00;8342054;28;20204;-83
2021/03/07 17:06:11;;;;;;;7.10;5.70;;;;;;;10.39;26.49;98054.22;8341191;28;20672;-83
2021/03/07 17:10:14;;;;;;;5.60;5.07;;;;;;;10.42;26.76;98074.00;8341724;28;20224;-83
2021/03/07 17:14:16;;;;;;;5.77;4.40;;;;;;;10.29;27.84;98076.22;8341922;28;20232;-83
2021/03/07 17:18:18;;;;;;;4.30;3.90;;;;;;;10.17;27.79;98080.97;8340782;28;20578;-84
2021/03/07 17:22:22;;;;;;;4.27;3.70;;;;;;;10.00;28.44;98088.59;8340973;28;20208;-84
2021/03/07 17:26:24;;;;;;;9.20;7.97;;;;;;;9.83;29.21;98086.66;8340355;28;20231;-83
2021/03/07 17:30:27;;;;;;;15.20;12.53;;;;;;;9.65;30.56;98083.03;8323705;28;20204;-83
2021/03/07 17:34:30;;;;;;;14.17;11.70;;;;;;;9.54;30.29;98091.22;8338969;28;20200;-84
2021/03/07 17:38:33;;;;;;;24.60;18.77;;;;;;;9.51;30.12;98085.31;8339700;28;20211;-83
2021/03/07 17:42:36;;;;;;;21.17;13.87;;;;;;;9.35;30.82;98092.84;8339399;28;20217;-83
2021/03/07 17:46:38;;;;;;;131.70;84.43;;;;;;;9.25;30.84;98094.88;8340075;28;20224;-83
2021/03/07 17:50:40;;;;;;;101.63;77.80;;;;;;;9.17;30.87;98102.09;8321954;28;20197;-84
2021/03/07 17:54:43;;;;;;;31.33;22.33;;;;;;;9.02;31.61;98108.66;8343475;28;20196;-83
2021/03/07 17:58:45;;;;;;;14.37;11.17;;;;;;;8.84;32.31;98111.91;8340472;28;20216;-82
2021/03/07 18:02:47;;;;;;;13.20;10.53;;;;;;;8.87;32.02;98109.19;8340149;28;20196;-82
2021/03/07 18:06:49;;;;;;;19.57;12.40;;;;;;;8.65;32.17;98112.53;8347281;28;20251;-81
2021/03/07 18:10:51;;;;;;;41.13;30.90;;;;;;;8.49;31.78;98113.94;8353341;28;20688;-81
2021/03/07 18:14:53;;;;;;;30.30;21.00;;;;;;;8.39;32.42;98116.78;8366223;28;20196;-81
2021/03/07 18:18:55;;;;;;;35.60;24.23;;;;;;;8.27;32.80;98118.94;8341065;28;20710;-84
2021/03/07 18:22:57;;;;;;;21.03;15.40;;;;;;;8.36;32.92;98116.91;8338284;28;20193;-82
2021/03/07 18:27:00;;;;;;;13.63;10.80;;;;;;;8.20;33.88;98126.84;8340916;28;20709;-83
2021/03/07 18:31:03;;;;;;;11.23;9.80;;;;;;;7.96;34.20;98130.25;8347766;28;20197;-82
2021/03/07 18:35:07;;;;;;;11.87;10.50;;;;;;;8.01;34.63;98125.75;8339045;28;20267;-81
2021/03/07 18:39:09;;;;;;;32.53;26.53;;;;;;;7.81;35.27;98114.34;8339504;28;20200;-83
2021/03/07 18:43:12;;;;;;;49.30;40.37;;;;;;;7.72;35.36;98118.94;8339570;28;20208;-84
2021/03/07 18:47:14;;;;;;;24.33;21.50;;;;;;;7.75;35.61;98118.81;8320944;28;20571;-82
2021/03/07 18:51:16;;;;;;;19.50;16.07;;;;;;;7.63;35.73;98128.66;8365492;28;20262;-83
2021/03/07 18:55:18;;;;;;;16.40;14.30;;;;;;;7.67;35.36;98118.22;8374729;28;20253;-84
2021/03/07 18:59:21;;;;;;;13.73;10.03;;;;;;;7.57;35.14;98108.19;8374771;28;20210;-83